createdAt,value
2023-03-31T00:01:58.021Z,9.58
2023-03-31T00:04:32.190Z,10.24
2023-03-31T00:07:00.421Z,11.28
2023-03-31T00:09:33.620Z,12.00
2023-03-31T00:12:04.994Z,12.41
2023-03-31T00:14:33.330Z,12.80
2023-03-31T00:17:02.542Z,13.29
2023-03-31T00:19:33.904Z,12.78
2023-03-31T00:22:22.797Z,11.50
2023-03-31T00:25:33.712Z,10.30
2023-03-31T00:28:01.697Z,9.88
2023-03-31T00:30:50.227Z,10.76
2023-03-31T00:33:21.332Z,11.85
2023-03-31T00:35:55.197Z,12.31
2023-03-31T00:38:23.901Z,12.51
2023-03-31T00:40:53.944Z,12.38
2023-03-31T00:44:13.093Z,11.37
2023-03-31T00:47:21.185Z,10.07
2023-03-31T00:49:51.878Z,10.49
2023-03-31T00:52:41.789Z,11.01
2023-03-31T00:55:42.091Z,11.27
2023-03-31T00:59:30.518Z,11.44
2023-03-31T01:02:03.011Z,11.41
2023-03-31T01:04:35.359Z,11.52
2023-03-31T01:07:31.136Z,11.74
2023-03-31T01:10:00.811Z,11.65
2023-03-31T01:12:33.310Z,11.80
2023-03-31T01:15:24.666Z,11.86
2023-03-31T01:18:21.264Z,11.89
2023-03-31T01:21:16.910Z,11.90
2023-03-31T01:23:59.369Z,11.92
2023-03-31T01:26:55.765Z,11.96
2023-03-31T01:30:47.642Z,11.88
2023-03-31T01:34:02.773Z,11.91
2023-03-31T01:37:30.229Z,11.95
2023-03-31T01:40:37.967Z,11.79
2023-03-31T01:44:08.630Z,11.98
2023-03-31T01:46:58.658Z,11.96
2023-03-31T01:50:08.119Z,11.96
2023-03-31T01:53:16.927Z,11.97
2023-03-31T01:57:06.333Z,11.87
2023-03-31T02:00:26.254Z,11.86
2023-03-31T02:03:32.333Z,11.83
2023-03-31T02:06:20.324Z,11.96
2023-03-31T02:09:11.416Z,11.97
2023-03-31T02:11:43.024Z,11.96
2023-03-31T02:14:12.881Z,11.99
2023-03-31T02:17:02.364Z,12.05
2023-03-31T02:19:51.751Z,11.97
2023-03-31T02:22:20.062Z,11.93
2023-03-31T02:24:49.013Z,12.02
2023-03-31T02:27:51.799Z,12.10
2023-03-31T02:30:20.285Z,12.11
2023-03-31T02:33:09.658Z,12.08
2023-03-31T02:35:41.360Z,12.06
2023-03-31T02:38:11.843Z,12.10
2023-03-31T02:40:42.912Z,12.06
2023-03-31T02:43:31.657Z,12.01
2023-03-31T02:46:00.318Z,11.99
2023-03-31T02:48:38.270Z,12.00
2023-03-31T02:51:16.528Z,11.99
2023-03-31T02:54:15.836Z,11.96
2023-03-31T02:57:09.296Z,12.09
2023-03-31T03:00:28.546Z,12.08
2023-03-31T03:03:19.756Z,12.15
2023-03-31T03:06:28.127Z,12.07
2023-03-31T03:09:52.451Z,12.07
2023-03-31T03:12:49.934Z,12.21
2023-03-31T03:15:24.533Z,12.18
2023-03-31T03:17:52.667Z,12.24
2023-03-31T03:20:24.578Z,12.22
2023-03-31T03:22:52.896Z,12.14
2023-03-31T03:25:24.438Z,12.14
2023-03-31T03:27:53.314Z,12.22
2023-03-31T03:30:21.707Z,12.13
2023-03-31T03:32:50.593Z,12.00
2023-03-31T03:35:18.773Z,12.10
2023-03-31T03:38:07.623Z,12.20
2023-03-31T03:40:36.135Z,12.17
2023-03-31T03:43:10.747Z,12.05
2023-03-31T03:45:38.963Z,11.97
2023-03-31T03:48:29.962Z,11.94
2023-03-31T03:51:01.389Z,12.08
2023-03-31T03:53:29.569Z,12.18
2023-03-31T03:55:59.499Z,12.17
2023-03-31T03:58:27.648Z,12.09
2023-03-31T04:00:57.155Z,12.07
2023-03-31T04:03:49.266Z,12.04
2023-03-31T04:06:19.980Z,12.10
2023-03-31T04:08:48.029Z,12.13
2023-03-31T04:11:19.201Z,12.13
2023-03-31T04:13:48.115Z,12.14
2023-03-31T04:16:19.648Z,12.13
2023-03-31T04:19:05.107Z,12.04
2023-03-31T04:21:35.948Z,12.11
2023-03-31T04:24:33.029Z,12.19
2023-03-31T04:27:08.084Z,12.22
2023-03-31T04:29:42.720Z,12.29
2023-03-31T04:32:15.062Z,12.17
2023-03-31T04:34:46.691Z,12.10
2023-03-31T04:37:15.176Z,12.15
2023-03-31T04:40:08.183Z,12.27
2023-03-31T04:42:36.575Z,12.43
2023-03-31T04:45:30.745Z,12.47
2023-03-31T04:48:30.556Z,12.55
2023-03-31T04:50:58.723Z,12.60
2023-03-31T04:53:30.343Z,12.58
2023-03-31T04:56:18.698Z,12.65
2023-03-31T04:58:47.071Z,12.71
2023-03-31T05:01:36.641Z,12.77
2023-03-31T05:04:25.734Z,12.83
2023-03-31T05:07:20.010Z,12.91
2023-03-31T05:09:48.242Z,12.80
2023-03-31T05:12:16.860Z,12.78
2023-03-31T05:16:02.316Z,12.79
2023-03-31T05:19:43.581Z,12.83
2023-03-31T05:23:11.287Z,12.82
2023-03-31T05:26:20.139Z,12.87
2023-03-31T05:28:52.159Z,12.97
2023-03-31T05:31:20.532Z,13.00
2023-03-31T05:33:59.110Z,13.07
2023-03-31T05:37:48.264Z,13.12
2023-03-31T05:40:57.615Z,13.06
2023-03-31T05:43:26.172Z,13.18
2023-03-31T05:45:54.538Z,13.16
2023-03-31T05:48:28.527Z,13.31
2023-03-31T05:51:02.303Z,13.44
2023-03-31T05:53:34.173Z,13.51
2023-03-31T05:56:10.295Z,13.52
2023-03-31T05:58:50.132Z,13.63
2023-03-31T06:01:53.104Z,13.76
2023-03-31T06:05:05.684Z,13.76
2023-03-31T06:08:17.169Z,13.84
2023-03-31T06:11:30.165Z,13.79
2023-03-31T06:14:39.054Z,13.82
2023-03-31T06:17:07.684Z,13.84
2023-03-31T06:19:58.880Z,13.99
2023-03-31T06:22:33.029Z,14.07
2023-03-31T06:25:01.455Z,14.18
2023-03-31T06:27:52.907Z,14.35
2023-03-31T06:30:23.508Z,14.53
2023-03-31T06:33:32.052Z,14.67
2023-03-31T06:36:01.843Z,14.81
2023-03-31T06:39:10.790Z,14.83
2023-03-31T06:41:39.410Z,14.80
2023-03-31T06:44:07.568Z,14.83
2023-03-31T06:46:46.562Z,14.78
2023-03-31T06:49:17.643Z,14.73
2023-03-31T06:51:48.524Z,14.75
2023-03-31T06:54:37.431Z,14.82
2023-03-31T06:57:14.223Z,14.86
2023-03-31T06:59:42.403Z,15.00
2023-03-31T07:02:17.286Z,15.14
2023-03-31T07:05:06.565Z,15.28
2023-03-31T07:07:55.613Z,15.39
2023-03-31T07:11:00.700Z,15.40
2023-03-31T07:13:49.687Z,15.55
2023-03-31T07:16:41.269Z,15.66
2023-03-31T07:19:15.659Z,15.08
2023-03-31T07:22:37.513Z,14.22
2023-03-31T07:25:26.404Z,13.30
2023-03-31T07:27:57.880Z,13.51
2023-03-31T07:30:26.508Z,14.23
2023-03-31T07:32:54.998Z,14.75
2023-03-31T07:35:56.813Z,15.03
2023-03-31T07:38:57.060Z,15.47
2023-03-31T07:41:45.872Z,15.73
2023-03-31T07:44:23.510Z,16.00
2023-03-31T07:46:51.840Z,15.81
2023-03-31T07:49:51.764Z,15.04
2023-03-31T07:53:03.513Z,14.12
2023-03-31T07:55:52.539Z,14.29
2023-03-31T07:58:23.911Z,15.08
2023-03-31T08:01:18.951Z,15.46
2023-03-31T08:03:59.312Z,15.71
2023-03-31T08:07:09.345Z,15.75
2023-03-31T08:09:50.996Z,15.83
2023-03-31T08:12:42.850Z,15.89
2023-03-31T08:16:05.199Z,15.99
2023-03-31T08:19:13.244Z,16.09
2023-03-31T08:22:24.134Z,15.35
2023-03-31T08:24:52.327Z,14.65
2023-03-31T08:27:51.275Z,14.89
2023-03-31T08:30:20.608Z,15.54
2023-03-31T08:34:00.958Z,15.92
2023-03-31T08:36:57.284Z,16.07
2023-03-31T08:39:25.832Z,15.74
2023-03-31T08:42:43.591Z,14.96
2023-03-31T08:45:57.091Z,14.61
2023-03-31T08:49:07.047Z,15.23
2023-03-31T08:51:59.533Z,15.62
2023-03-31T08:54:56.982Z,15.95
2023-03-31T08:58:51.907Z,15.66
2023-03-31T09:01:52.178Z,14.77
2023-03-31T09:05:21.380Z,14.47
2023-03-31T09:08:24.952Z,15.39
2023-03-31T09:11:20.175Z,15.81
2023-03-31T09:14:52.546Z,16.16
2023-03-31T09:18:15.858Z,15.82
2023-03-31T09:21:24.272Z,15.11
2023-03-31T09:25:08.898Z,14.65
2023-03-31T09:27:56.279Z,14.42
2023-03-31T09:30:43.651Z,15.35
2023-03-31T09:34:15.294Z,16.42
2023-03-31T09:36:47.000Z,17.43
2023-03-31T09:39:35.888Z,17.60
2023-03-31T09:42:54.773Z,17.11
2023-03-31T09:46:43.654Z,16.44
2023-03-31T09:50:06.453Z,15.85
2023-03-31T09:53:24.480Z,16.30
2023-03-31T09:56:36.134Z,17.23
2023-03-31T10:00:23.071Z,17.23
2023-03-31T10:03:23.665Z,17.14
2023-03-31T10:06:52.775Z,17.20
2023-03-31T10:10:01.589Z,17.20
2023-03-31T10:13:11.641Z,17.19
2023-03-31T10:16:24.437Z,17.04
2023-03-31T10:19:09.620Z,16.74
2023-03-31T10:21:38.763Z,16.55
2023-03-31T10:24:53.645Z,16.39
2023-03-31T10:27:52.210Z,16.04
2023-03-31T10:31:03.651Z,15.81
2023-03-31T10:33:45.113Z,15.74
2023-03-31T10:36:36.184Z,15.67
2023-03-31T10:39:07.738Z,15.76
2023-03-31T10:41:35.968Z,15.92
2023-03-31T10:44:37.864Z,16.15
2023-03-31T10:47:30.804Z,16.31
2023-03-31T10:50:22.674Z,16.35
2023-03-31T10:52:53.963Z,16.49
2023-03-31T10:55:59.847Z,16.50
2023-03-31T10:59:07.056Z,16.59
2023-03-31T11:02:01.134Z,16.62
2023-03-31T11:05:15.978Z,16.77
2023-03-31T11:09:13.292Z,17.09
2023-03-31T11:13:02.721Z,17.43
2023-03-31T11:16:16.322Z,17.64
2023-03-31T11:19:42.500Z,17.94
2023-03-31T11:22:39.486Z,17.99
2023-03-31T11:26:37.268Z,17.92
2023-03-31T11:30:21.390Z,17.92
2023-03-31T11:33:42.496Z,17.67
2023-03-31T11:37:21.943Z,17.76
2023-03-31T11:40:29.757Z,17.94
2023-03-31T11:44:02.665Z,18.17
2023-03-31T11:47:00.787Z,18.08
2023-03-31T11:50:44.926Z,17.80
2023-03-31T11:53:39.807Z,17.58
2023-03-31T11:56:49.365Z,17.22
2023-03-31T12:00:10.217Z,16.92
2023-03-31T12:03:16.908Z,16.61
2023-03-31T12:06:17.468Z,16.54
2023-03-31T12:09:40.290Z,16.67
2023-03-31T12:13:02.490Z,16.71
2023-03-31T12:16:46.329Z,16.71
2023-03-31T12:19:56.630Z,16.65
2023-03-31T12:22:39.387Z,16.52
2023-03-31T12:25:48.377Z,16.48
2023-03-31T12:29:26.714Z,16.60
2023-03-31T12:32:41.911Z,16.71
2023-03-31T12:35:44.315Z,16.69
2023-03-31T12:39:14.990Z,16.66
2023-03-31T12:43:18.584Z,16.83
2023-03-31T12:46:06.752Z,16.81
2023-03-31T12:49:23.392Z,16.90
2023-03-31T12:52:27.922Z,17.00
2023-03-31T12:56:14.312Z,16.99
2023-03-31T12:59:28.589Z,17.05
2023-03-31T13:02:23.173Z,17.07
2023-03-31T13:05:40.483Z,16.95
2023-03-31T13:09:12.336Z,16.82
2023-03-31T13:11:47.949Z,16.71
2023-03-31T13:14:45.669Z,16.62
2023-03-31T13:18:55.414Z,16.55
2023-03-31T13:23:04.490Z,16.36
2023-03-31T13:26:27.369Z,16.25
2023-03-31T13:30:16.099Z,16.05
2023-03-31T13:34:12.645Z,15.89
2023-03-31T13:38:17.749Z,15.80
2023-03-31T13:41:48.536Z,15.80
2023-03-31T13:45:37.169Z,15.90
2023-03-31T13:49:19.500Z,15.99
2023-03-31T13:53:07.536Z,16.07
2023-03-31T13:57:04.593Z,16.09
2023-03-31T14:00:22.064Z,16.03
2023-03-31T14:04:10.232Z,15.95
2023-03-31T14:07:21.384Z,15.79
2023-03-31T14:09:57.092Z,15.76
2023-03-31T14:13:18.989Z,15.70
2023-03-31T14:16:16.719Z,15.63
2023-03-31T14:19:49.378Z,15.59
2023-03-31T14:23:06.497Z,15.49
2023-03-31T14:26:17.813Z,15.42
2023-03-31T14:29:43.390Z,15.46
2023-03-31T14:33:04.176Z,15.54
2023-03-31T14:36:11.849Z,15.60
2023-03-31T14:39:58.348Z,15.67
2023-03-31T14:43:40.329Z,15.74
2023-03-31T14:46:12.093Z,15.75
2023-03-31T14:49:14.962Z,15.72
2023-03-31T14:52:00.696Z,15.68
2023-03-31T14:54:38.601Z,15.62
2023-03-31T14:57:56.162Z,15.54
2023-03-31T15:00:35.886Z,15.48
2023-03-31T15:03:50.875Z,15.47
2023-03-31T15:06:39.997Z,15.48
2023-03-31T15:09:33.335Z,15.49
2023-03-31T15:12:07.859Z,15.50
2023-03-31T15:14:49.962Z,15.52
2023-03-31T15:17:57.217Z,15.55
2023-03-31T15:20:38.944Z,15.52
2023-03-31T15:23:46.397Z,15.51
2023-03-31T15:26:42.996Z,15.52
2023-03-31T15:30:19.457Z,15.58
2023-03-31T15:36:05.005Z,15.43
2023-03-31T15:38:33.246Z,15.40
2023-03-31T15:41:01.738Z,15.34
2023-03-31T15:43:58.485Z,15.29
2023-03-31T15:46:56.416Z,15.25
2023-03-31T15:49:56.560Z,15.19
2023-03-31T15:53:09.626Z,15.14
2023-03-31T15:58:53.474Z,15.01
2023-03-31T16:01:52.255Z,14.87
2023-03-31T16:04:44.118Z,14.71
2023-03-31T16:07:22.496Z,14.57
2023-03-31T16:10:33.400Z,14.41
2023-03-31T16:13:45.038Z,14.22
2023-03-31T16:16:55.162Z,14.09
2023-03-31T16:20:25.705Z,13.94
2023-03-31T16:23:25.995Z,13.75
2023-03-31T16:25:56.962Z,13.60
2023-03-31T16:29:05.913Z,13.48
2023-03-31T16:31:41.820Z,13.34
2023-03-31T16:34:11.249Z,13.22
2023-03-31T16:37:20.867Z,13.10
2023-03-31T16:40:35.188Z,12.95
2023-03-31T16:43:30.649Z,12.81
2023-03-31T16:46:43.520Z,12.67
2023-03-31T16:50:12.676Z,12.48
2023-03-31T16:52:47.318Z,12.31
2023-03-31T16:55:38.434Z,12.18
2023-03-31T16:58:47.643Z,12.03
2023-03-31T17:01:19.318Z,11.91
2023-03-31T17:04:03.080Z,12.68
2023-03-31T17:06:33.734Z,13.66
2023-03-31T17:09:02.315Z,14.29
2023-03-31T17:11:50.724Z,14.81
2023-03-31T17:14:39.746Z,15.18
2023-03-31T17:18:11.052Z,15.44
2023-03-31T17:21:53.743Z,14.54
2023-03-31T17:25:36.252Z,13.60
2023-03-31T17:28:38.672Z,13.02
2023-03-31T17:31:32.494Z,12.63
2023-03-31T17:34:01.590Z,12.37
2023-03-31T17:37:08.090Z,12.17
2023-03-31T17:41:17.782Z,11.95
2023-03-31T17:44:18.345Z,11.74
2023-03-31T17:48:28.139Z,12.25
2023-03-31T17:51:59.430Z,13.73
2023-03-31T17:55:14.960Z,14.51
2023-03-31T17:57:56.733Z,14.90
2023-03-31T18:00:25.499Z,15.11
2023-03-31T18:03:17.029Z,14.91
2023-03-31T18:06:33.341Z,13.99
2023-03-31T18:09:06.071Z,13.28
2023-03-31T18:11:37.807Z,12.82
2023-03-31T18:15:10.985Z,12.45
2023-03-31T18:17:43.380Z,12.05
2023-03-31T18:21:32.772Z,11.97
2023-03-31T18:24:03.830Z,13.19
2023-03-31T18:26:32.366Z,13.81
2023-03-31T18:29:03.462Z,14.19
2023-03-31T18:31:34.787Z,14.44
2023-03-31T18:34:29.123Z,14.10
2023-03-31T18:37:20.957Z,13.29
2023-03-31T18:39:52.497Z,12.69
2023-03-31T18:42:28.270Z,12.31
2023-03-31T18:45:19.980Z,12.02
2023-03-31T18:47:48.281Z,11.74
2023-03-31T18:50:20.065Z,11.55
2023-03-31T18:52:54.872Z,11.36
2023-03-31T18:56:01.899Z,11.76
2023-03-31T18:58:32.642Z,12.89
2023-03-31T19:01:24.380Z,13.50
2023-03-31T19:03:52.742Z,13.96
2023-03-31T19:06:22.544Z,14.28
2023-03-31T19:08:55.587Z,14.48
2023-03-31T19:11:32.986Z,14.20
2023-03-31T19:14:21.608Z,13.35
2023-03-31T19:16:55.372Z,12.75
2023-03-31T19:19:50.266Z,12.29
2023-03-31T19:22:19.209Z,11.90
2023-03-31T19:24:53.122Z,11.65
2023-03-31T19:27:30.279Z,11.44
2023-03-31T19:29:58.584Z,11.96
2023-03-31T19:32:29.999Z,12.83
2023-03-31T19:35:29.459Z,13.56
2023-03-31T19:38:00.382Z,14.05
2023-03-31T19:40:28.588Z,13.69
2023-03-31T19:42:57.045Z,12.98
2023-03-31T19:45:46.460Z,12.41
2023-03-31T19:48:30.332Z,11.96
2023-03-31T19:51:27.954Z,11.61
2023-03-31T19:53:58.748Z,12.02
2023-03-31T19:56:57.504Z,12.81
2023-03-31T19:59:26.213Z,13.47
2023-03-31T20:02:44.072Z,13.88
2023-03-31T20:05:12.558Z,14.15
2023-03-31T20:07:48.882Z,14.05
2023-03-31T20:10:21.275Z,13.29
2023-03-31T20:13:25.237Z,12.58
2023-03-31T20:16:02.178Z,12.05
2023-03-31T20:19:16.445Z,11.64
2023-03-31T20:21:58.210Z,11.99
2023-03-31T20:24:35.771Z,12.83
2023-03-31T20:27:24.939Z,13.33
2023-03-31T20:30:03.692Z,13.73
2023-03-31T20:32:32.304Z,14.01
2023-03-31T20:35:07.195Z,14.11
2023-03-31T20:37:38.475Z,14.25
2023-03-31T20:40:32.944Z,14.38
2023-03-31T20:43:52.842Z,14.52
2023-03-31T20:46:30.594Z,14.61
2023-03-31T20:49:40.272Z,14.58
2023-03-31T20:52:11.478Z,13.92
2023-03-31T20:55:02.890Z,13.10
2023-03-31T20:57:54.153Z,12.34
2023-03-31T21:00:36.001Z,12.37
2023-03-31T21:03:25.149Z,13.05
2023-03-31T21:06:52.000Z,13.63
2023-03-31T21:10:04.664Z,13.96
2023-03-31T21:12:33.844Z,14.13
2023-03-31T21:15:25.157Z,14.21
2023-03-31T21:19:09.318Z,14.24
2023-03-31T21:21:53.718Z,14.29
2023-03-31T21:25:22.373Z,14.39
2023-03-31T21:28:43.300Z,14.44
2023-03-31T21:32:25.771Z,14.56
2023-03-31T21:35:13.336Z,14.63
2023-03-31T21:38:11.660Z,14.71
2023-03-31T21:41:56.846Z,14.79
2023-03-31T21:45:08.860Z,14.78
2023-03-31T21:47:50.510Z,14.85
2023-03-31T21:50:18.997Z,14.90
2023-03-31T21:52:50.497Z,14.65
2023-03-31T21:55:28.054Z,13.79
2023-03-31T21:57:59.883Z,12.96
2023-03-31T22:00:28.144Z,12.35
2023-03-31T22:03:27.216Z,12.36
2023-03-31T22:05:56.802Z,13.03
2023-03-31T22:08:27.045Z,13.46
2023-03-31T22:10:56.185Z,13.66
2023-03-31T22:13:34.525Z,13.81
2023-03-31T22:16:23.171Z,13.95
2023-03-31T22:18:51.631Z,14.03
2023-03-31T22:21:36.144Z,14.14
2023-03-31T22:24:04.361Z,14.21
2023-03-31T22:26:32.577Z,14.23
2023-03-31T22:29:00.686Z,14.23
2023-03-31T22:31:29.345Z,14.07
2023-03-31T22:34:19.565Z,13.39
2023-03-31T22:36:47.627Z,12.51
2023-03-31T22:39:16.421Z,11.93
2023-03-31T22:41:48.656Z,11.78
2023-03-31T22:44:16.952Z,12.33
2023-03-31T22:46:48.428Z,12.83
2023-03-31T22:49:16.855Z,13.19
2023-03-31T22:51:45.299Z,13.43
2023-03-31T22:54:16.724Z,13.55
2023-03-31T22:56:45.437Z,13.68
2023-03-31T22:59:17.410Z,13.83
2023-03-31T23:01:47.088Z,13.89
2023-03-31T23:04:15.528Z,13.96
2023-03-31T23:06:44.042Z,14.04
2023-03-31T23:09:12.315Z,14.14
2023-03-31T23:11:41.089Z,14.17
2023-03-31T23:14:13.306Z,14.05
2023-03-31T23:16:43.939Z,13.46
2023-03-31T23:19:12.387Z,12.60
2023-03-31T23:21:40.764Z,12.15
2023-03-31T23:24:09.983Z,12.51
2023-03-31T23:26:38.150Z,12.94
2023-03-31T23:29:11.839Z,13.24
2023-03-31T23:32:24.305Z,13.33
2023-03-31T23:34:52.587Z,13.44
2023-03-31T23:37:20.793Z,13.53
2023-03-31T23:39:49.252Z,13.63
2023-03-31T23:42:20.933Z,13.64
2023-03-31T23:44:49.072Z,13.66
2023-03-31T23:47:19.760Z,13.73
2023-03-31T23:49:48.247Z,13.82
2023-03-31T23:52:16.835Z,13.84
2023-03-31T23:54:48.017Z,13.92
2023-03-31T23:57:27.450Z,13.97
2023-03-31T23:59:58.461Z,14.06
